Time;durP1;ratioP1;P1;durP2;ratioP2;P2;SDS_P1;SDS_P2;PMS_P1;PMS_P2;Temp;Humidity;BMP_temperature;BMP_pressure;BME280_temperature;BME280_humidity;BME280_pressure;Samples;Min_cycle;Max_cycle;Signal;HPM_P1;HPM_P2
2022/01/18 00:00:03;;;;;;;9.40;9.10;;;3.80;99.90;;;;;;5098333;28;20325;-82
2022/01/18 00:05:37;;;;;;;9.47;9.17;;;3.90;99.90;;;;;;5098207;28;20236;-82
2022/01/18 00:08:26;;;;;;;9.27;8.97;;;3.80;99.90;;;;;;5094024;28;20242;-83
2022/01/18 00:11:03;;;;;;;9.40;9.10;;;3.80;99.90;;;;;;5088697;28;20230;-83
2022/01/18 00:13:43;;;;;;;9.53;9.23;;;3.80;99.90;;;;;;5087006;28;20226;-82
2022/01/18 00:16:38;;;;;;;9.77;9.47;;;3.80;99.90;;;;;;5086595;28;20297;-82
2022/01/18 00:19:23;;;;;;;9.60;9.30;;;3.80;99.90;;;;;;5083875;28;20230;-83
2022/01/18 00:25:00;;;;;;;9.40;9.10;;;3.80;99.90;;;;;;5080405;28;20221;-82
2022/01/18 00:27:51;;;;;;;9.50;9.20;;;3.80;99.90;;;;;;5079958;28;20462;-82
2022/01/18 00:30:52;;;;;;;9.63;9.33;;;3.80;99.90;;;;;;5060689;28;20237;-82
2022/01/18 00:33:40;;;;;;;9.57;9.27;;;3.80;99.90;;;;;;5077884;28;20238;-82
2022/01/18 00:39:13;;;;;;;9.60;9.30;;;3.90;99.90;;;;;;5075372;28;20253;-82
2022/01/18 00:41:49;;;;;;;9.60;9.30;;;4.00;99.90;;;;;;5077196;28;20248;-82
2022/01/18 00:44:25;;;;;;;9.53;9.23;;;4.00;99.90;;;;;;5076888;28;20221;-82
2022/01/18 00:46:56;;;;;;;9.50;9.20;;;4.00;99.90;;;;;;5077313;28;20311;-82
2022/01/18 00:49:39;;;;;;;9.30;9.00;;;4.00;99.90;;;;;;5076754;28;20244;-82
2022/01/18 00:52:20;;;;;;;9.57;9.27;;;4.00;99.90;;;;;;5078040;28;20230;-82
2022/01/18 00:54:59;;;;;;;9.50;9.20;;;4.10;99.90;;;;;;5077146;28;20209;-82
2022/01/18 00:57:37;;;;;;;9.57;9.27;;;4.10;99.90;;;;;;5077339;28;20264;-82
2022/01/18 01:00:22;;;;;;;9.50;9.20;;;4.10;99.90;;;;;;5077507;28;20233;-83
2022/01/18 01:03:12;;;;;;;9.60;9.30;;;4.10;99.90;;;;;;5077292;28;20238;-83
2022/01/18 01:05:59;;;;;;;9.40;9.10;;;4.10;99.90;;;;;;5077947;28;20233;-83
2022/01/18 01:08:38;;;;;;;9.10;8.80;;;4.10;99.90;;;;;;5076916;28;20257;-83
2022/01/18 01:11:16;;;;;;;9.30;9.00;;;4.10;99.90;;;;;;5077628;28;20256;-82
2022/01/18 01:13:52;;;;;;;9.10;8.80;;;4.00;99.90;;;;;;5077000;28;20241;-83
2022/01/18 01:16:49;;;;;;;9.30;9.00;;;4.00;99.90;;;;;;5077824;28;20233;-83
2022/01/18 01:19:52;;;;;;;9.30;9.00;;;4.00;99.90;;;;;;5076905;28;20238;-83
2022/01/18 01:42:56;;;;;;;9.10;8.80;;;4.00;99.90;;;;;;5077467;28;20191;-83
2022/01/18 01:45:31;;;;;;;9.00;8.70;;;4.10;99.90;;;;;;5080054;28;20237;-82
2022/01/18 01:48:00;;;;;;;9.10;8.80;;;4.10;99.90;;;;;;5088592;28;20232;-84
2022/01/18 01:50:40;;;;;;;8.70;8.50;;;4.00;99.90;;;;;;5080955;28;20300;-83
2022/01/18 01:53:08;;;;;;;9.00;8.70;;;4.00;99.90;;;;;;5082350;28;20222;-84
2022/01/18 01:55:37;;;;;;;9.23;8.93;;;4.10;99.90;;;;;;5084690;28;20231;-83
2022/01/18 01:58:15;;;;;;;9.30;9.00;;;4.00;99.90;;;;;;5083318;28;20292;-83
2022/01/18 02:00:46;;;;;;;9.20;8.90;;;4.00;99.90;;;;;;5083487;28;20257;-83
2022/01/18 02:03:23;;;;;;;9.40;9.10;;;4.00;99.90;;;;;;5081061;28;20254;-83
2022/01/18 02:05:53;;;;;;;9.60;9.30;;;4.00;99.90;;;;;;5081270;28;20297;-83
2022/01/18 02:08:24;;;;;;;9.10;8.80;;;4.00;99.90;;;;;;5080935;28;20238;-82
2022/01/18 02:11:02;;;;;;;9.10;8.80;;;4.00;99.90;;;;;;5081262;28;20303;-82
2022/01/18 02:13:41;;;;;;;9.37;9.07;;;4.00;99.90;;;;;;5081031;28;20349;-82
2022/01/18 02:21:45;;;;;;;9.17;8.87;;;4.00;99.90;;;;;;5080601;28;20722;-83
2022/01/18 02:22:00;;;;;;;9.33;9.03;;;3.70;99.90;;;;;;5053819;28;20252;-82
2022/01/18 02:24:29;;;;;;;9.20;8.90;;;3.60;99.90;;;;;;5086579;28;20298;-81
2022/01/18 02:26:59;;;;;;;9.37;9.07;;;3.50;99.90;;;;;;5095841;28;20252;-83
2022/01/18 02:29:28;;;;;;;9.40;9.10;;;3.50;99.90;;;;;;5082184;28;20234;-82
2022/01/18 02:31:57;;;;;;;9.50;9.20;;;3.60;99.90;;;;;;5081527;28;20226;-83
2022/01/18 02:34:26;;;;;;;9.63;9.33;;;3.60;99.90;;;;;;5079657;28;20223;-82
2022/01/18 02:36:58;;;;;;;9.60;9.30;;;3.70;99.90;;;;;;5078896;28;20230;-83
2022/01/18 02:39:28;;;;;;;9.80;9.50;;;3.70;99.90;;;;;;5078902;28;20708;-82
2022/01/18 02:41:59;;;;;;;9.47;9.17;;;3.70;99.90;;;;;;5078640;28;20280;-83
2022/01/18 02:44:33;;;;;;;9.50;9.20;;;3.80;99.90;;;;;;5079323;28;20237;-82
2022/01/18 02:47:03;;;;;;;9.50;9.20;;;3.70;99.90;;;;;;5081358;28;20281;-82
2022/01/18 02:49:33;;;;;;;9.63;9.33;;;3.60;99.90;;;;;;5080400;28;20235;-83
2022/01/18 02:54:50;;;;;;;9.90;9.60;;;3.50;99.90;;;;;;5079112;28;20218;-82
2022/01/18 02:57:26;;;;;;;9.80;9.50;;;3.50;99.90;;;;;;5080658;28;20245;-82
2022/01/18 03:00:14;;;;;;;9.67;9.37;;;3.50;99.90;;;;;;5079862;28;20238;-83
2022/01/18 03:05:38;;;;;;;9.47;9.17;;;3.50;99.90;;;;;;5074986;28;20206;-82
2022/01/18 03:08:17;;;;;;;9.67;9.37;;;3.40;99.90;;;;;;5079927;28;20245;-82
2022/01/18 03:10:49;;;;;;;9.40;9.10;;;3.40;99.90;;;;;;5080531;28;20222;-82
2022/01/18 03:13:26;;;;;;;9.73;9.43;;;3.40;99.90;;;;;;5079655;28;20226;-82
2022/01/18 03:15:55;;;;;;;10.00;9.70;;;3.40;99.90;;;;;;5079467;28;20229;-82
2022/01/18 03:18:24;;;;;;;9.90;9.60;;;3.40;99.90;;;;;;5080473;28;20226;-82
2022/01/18 03:20:54;;;;;;;10.17;9.87;;;3.40;99.90;;;;;;5080338;28;20261;-83
2022/01/18 03:23:36;;;;;;;10.10;9.80;;;3.40;99.90;;;;;;5079270;28;20238;-82
2022/01/18 03:26:15;;;;;;;10.07;9.77;;;3.40;99.90;;;;;;5079265;28;20257;-83
2022/01/18 03:28:42;;;;;;;9.93;9.63;;;3.40;99.90;;;;;;5079615;28;20341;-83
2022/01/18 03:33:58;;;;;;;9.77;9.47;;;3.30;99.90;;;;;;5079242;28;20226;-84
2022/01/18 03:36:27;;;;;;;9.80;9.50;;;3.30;99.90;;;;;;5079755;28;20364;-83
2022/01/18 03:39:01;;;;;;;9.87;9.57;;;3.40;99.90;;;;;;5078843;28;20241;-83
2022/01/18 03:44:14;;;;;;;10.03;9.73;;;3.50;99.90;;;;;;5077474;28;20230;-84
2022/01/18 03:46:53;;;;;;;9.50;9.20;;;3.60;99.90;;;;;;5078778;28;20301;-83
2022/01/18 03:49:23;;;;;;;9.40;9.10;;;3.60;99.90;;;;;;5080544;28;20225;-84
2022/01/18 03:51:51;;;;;;;9.83;9.53;;;3.70;99.90;;;;;;5078350;28;20237;-84
2022/01/18 03:54:24;;;;;;;9.77;9.47;;;3.70;99.90;;;;;;5079177;28;20230;-84
2022/01/18 03:56:59;;;;;;;9.50;9.20;;;3.70;99.90;;;;;;5078278;28;20387;-83
2022/01/18 03:59:28;;;;;;;9.40;9.10;;;3.70;99.90;;;;;;5078651;28;20264;-84
2022/01/18 04:01:59;;;;;;;9.37;9.07;;;3.70;99.90;;;;;;5079019;28;20234;-83
2022/01/18 04:04:27;;;;;;;9.40;9.10;;;3.70;99.90;;;;;;5085960;28;20222;-84
2022/01/18 04:06:55;;;;;;;9.60;9.30;;;3.70;99.90;;;;;;5099605;28;20344;-83
2022/01/18 04:09:26;;;;;;;9.73;9.43;;;3.70;99.90;;;;;;5100289;28;20210;-83
2022/01/18 04:11:54;;;;;;;9.70;9.40;;;3.70;99.90;;;;;;5100303;28;20236;-83
2022/01/18 04:14:25;;;;;;;9.60;9.30;;;3.80;99.90;;;;;;5100165;28;20232;-84
2022/01/18 04:28:17;;;;;;;10.07;9.77;;;3.80;99.90;;;;;;5100040;28;20205;-83
2022/01/18 04:30:48;;;;;;;9.57;9.27;;;3.90;99.90;;;;;;5096435;28;20222;-82
2022/01/18 04:33:17;;;;;;;9.57;9.27;;;3.80;99.90;;;;;;5096814;28;20232;-83
2022/01/18 04:35:48;;;;;;;9.20;8.90;;;3.80;99.90;;;;;;5092892;28;20306;-82
2022/01/18 04:38:16;;;;;;;9.83;9.53;;;3.80;99.90;;;;;;5090772;28;20231;-82
2022/01/18 04:41:00;;;;;;;9.80;9.50;;;3.90;99.90;;;;;;5088112;28;20241;-83
2022/01/18 04:43:44;;;;;;;9.40;9.10;;;3.90;99.90;;;;;;5086671;28;20349;-82
2022/01/18 04:48:58;;;;;;;9.60;9.30;;;3.80;99.90;;;;;;5084257;28;20248;-82
2022/01/18 04:51:28;;;;;;;9.30;9.00;;;3.80;99.90;;;;;;5083559;28;20233;-83
2022/01/18 04:54:00;;;;;;;9.30;9.00;;;3.80;99.90;;;;;;5082035;28;20238;-83
2022/01/18 04:59:16;;;;;;;9.43;9.13;;;3.80;99.90;;;;;;5087572;28;20292;-82
2022/01/18 05:01:52;;;;;;;8.87;8.67;;;3.80;99.90;;;;;;5084369;28;20277;-83
2022/01/18 05:04:21;;;;;;;9.60;9.30;;;3.70;99.90;;;;;;5077979;28;20238;-82
2022/01/18 05:07:08;;;;;;;9.50;9.20;;;3.70;99.90;;;;;;5073388;28;20241;-82
2022/01/18 05:09:39;;;;;;;9.43;9.13;;;3.70;99.90;;;;;;5064071;28;20238;-82
2022/01/18 05:12:25;;;;;;;9.30;9.00;;;3.70;99.90;;;;;;5058277;28;20240;-82
2022/01/18 05:14:55;;;;;;;9.40;9.10;;;3.70;99.90;;;;;;5058278;28;20230;-82
2022/01/18 05:17:40;;;;;;;9.67;9.37;;;3.70;99.90;;;;;;5058955;28;20231;-82
2022/01/18 05:20:38;;;;;;;9.50;9.20;;;3.70;99.90;;;;;;5083709;22;20394;-81
2022/01/18 05:23:05;;;;;;;9.30;9.00;;;3.70;99.90;;;;;;5068512;28;20245;-82
2022/01/18 05:25:36;;;;;;;9.00;8.70;;;3.60;99.90;;;;;;5085173;28;20234;-82
2022/01/18 05:28:14;;;;;;;8.80;8.60;;;3.60;99.90;;;;;;5085991;28;20226;-82
2022/01/18 05:30:46;;;;;;;9.30;9.00;;;3.60;99.90;;;;;;5088318;28;20225;-82
2022/01/18 05:33:15;;;;;;;9.20;8.90;;;3.50;99.90;;;;;;5088960;28;20272;-81
2022/01/18 05:35:44;;;;;;;9.30;9.00;;;3.50;99.90;;;;;;5088940;28;20253;-81
2022/01/18 05:38:13;;;;;;;9.20;8.90;;;3.40;99.90;;;;;;5087935;28;20234;-82
2022/01/18 05:40:43;;;;;;;8.70;8.50;;;3.40;99.90;;;;;;5089051;28;20234;-82
2022/01/18 05:43:22;;;;;;;8.77;8.57;;;3.40;99.90;;;;;;5087470;28;20234;-82
2022/01/18 05:45:50;;;;;;;9.30;9.00;;;3.50;99.90;;;;;;5088875;28;20264;-82
2022/01/18 05:48:20;;;;;;;9.20;8.90;;;3.40;99.90;;;;;;5088545;28;20283;-82
2022/01/18 05:50:49;;;;;;;9.20;8.90;;;3.50;99.90;;;;;;5090152;28;20249;-81
2022/01/18 05:53:19;;;;;;;9.40;9.10;;;3.40;99.90;;;;;;5089055;28;20252;-81
2022/01/18 05:55:48;;;;;;;9.30;9.00;;;3.40;99.90;;;;;;5088734;28;20230;-82
2022/01/18 05:58:18;;;;;;;9.03;8.73;;;3.40;99.90;;;;;;5090363;28;20333;-82
2022/01/18 06:00:52;;;;;;;9.50;9.20;;;3.40;99.90;;;;;;5090585;28;20242;-81
2022/01/18 06:03:27;;;;;;;9.57;9.27;;;3.40;99.90;;;;;;5090173;28;20226;-82
2022/01/18 06:08:42;;;;;;;9.43;9.13;;;3.40;99.90;;;;;;5097940;28;20206;-79
2022/01/18 06:11:11;;;;;;;9.60;9.30;;;3.40;99.90;;;;;;5074943;28;20203;-80
2022/01/18 06:13:52;;;;;;;9.70;9.40;;;3.40;99.90;;;;;;5077184;28;20226;-82
2022/01/18 06:16:19;;;;;;;9.67;9.37;;;3.30;99.90;;;;;;5082208;28;20290;-79
2022/01/18 06:18:48;;;;;;;9.40;9.10;;;3.30;99.90;;;;;;5081589;28;20226;-78
2022/01/18 06:21:17;;;;;;;9.50;9.20;;;3.40;99.90;;;;;;5081295;28;20242;-81
2022/01/18 06:23:47;;;;;;;9.47;9.17;;;3.30;99.90;;;;;;5078255;28;20235;-81
2022/01/18 06:26:16;;;;;;;9.90;9.60;;;3.40;99.90;;;;;;5071664;28;20571;-82
2022/01/18 06:28:56;;;;;;;9.70;9.40;;;3.40;99.90;;;;;;5070076;28;20290;-81
2022/01/18 06:31:24;;;;;;;9.70;9.40;;;3.40;99.90;;;;;;5069141;28;20215;-81
2022/01/18 06:33:53;;;;;;;10.00;9.70;;;3.30;99.90;;;;;;5068209;28;20231;-81
2022/01/18 06:36:23;;;;;;;9.80;9.50;;;3.30;99.90;;;;;;5068707;28;20281;-82
2022/01/18 06:38:53;;;;;;;9.50;9.20;;;3.30;99.90;;;;;;5068902;28;20238;-81
2022/01/18 06:41:22;;;;;;;9.37;9.07;;;3.40;99.90;;;;;;5068207;28;20231;-82
2022/01/18 06:44:01;;;;;;;9.53;9.23;;;3.40;99.90;;;;;;5068239;28;20235;-82
2022/01/18 06:46:30;;;;;;;10.27;9.97;;;3.40;99.90;;;;;;5068386;28;20235;-82
2022/01/18 06:48:59;;;;;;;10.10;9.80;;;3.40;99.90;;;;;;5067711;28;20235;-81
2022/01/18 06:51:28;;;;;;;9.90;9.60;;;3.50;99.90;;;;;;5067600;28;20219;-82
2022/01/18 06:53:58;;;;;;;10.27;9.98;;;3.50;99.90;;;;;;5065763;28;20433;-85
2022/01/18 06:56:28;;;;;;;10.00;9.70;;;3.50;99.90;;;;;;5071236;28;20270;-84
2022/01/18 06:58:59;;;;;;;10.60;10.30;;;3.60;99.90;;;;;;5076922;28;20238;-80
2022/01/18 07:01:27;;;;;;;10.47;10.17;;;3.60;99.90;;;;;;5079797;28;20222;-84
2022/01/18 07:03:56;;;;;;;10.60;10.30;;;3.60;99.90;;;;;;5077136;28;20258;-86
2022/01/18 07:06:25;;;;;;;10.33;10.03;;;3.60;99.90;;;;;;5072908;28;20231;-83
2022/01/18 07:08:56;;;;;;;10.10;9.80;;;3.60;99.90;;;;;;5071564;28;20278;-83
2022/01/18 07:11:25;;;;;;;10.07;9.77;;;3.60;99.90;;;;;;5070544;28;20227;-85
2022/01/18 07:13:53;;;;;;;10.53;10.23;;;3.60;99.90;;;;;;5069335;28;20281;-84
2022/01/18 07:16:32;;;;;;;10.33;10.03;;;3.60;99.90;;;;;;5069184;28;20285;-84
2022/01/18 07:19:02;;;;;;;10.43;10.13;;;3.60;99.90;;;;;;5068830;28;20241;-85
2022/01/18 07:21:31;;;;;;;10.80;10.50;;;3.30;99.90;;;;;;5068529;28;20231;-86
2022/01/18 07:24:04;;;;;;;10.50;10.20;;;3.10;99.90;;;;;;5066443;28;20270;-85
2022/01/18 07:26:32;;;;;;;10.50;10.20;;;3.10;99.90;;;;;;5067614;28;20279;-85
2022/01/18 07:29:00;;;;;;;10.70;10.40;;;3.10;99.90;;;;;;5066906;28;20297;-84
2022/01/18 07:31:34;;;;;;;10.80;10.50;;;3.10;99.90;;;;;;5074812;28;20231;-84
2022/01/18 07:34:02;;;;;;;10.33;10.03;;;3.20;99.90;;;;;;5084648;28;20233;-87
2022/01/18 07:36:38;;;;;;;10.30;10.00;;;3.20;99.90;;;;;;5084399;28;20335;-86
2022/01/18 07:39:07;;;;;;;10.40;10.10;;;3.20;99.90;;;;;;5079552;28;20230;-85
2022/01/18 07:41:37;;;;;;;10.60;10.30;;;3.30;99.90;;;;;;5076819;28;20240;-84
2022/01/18 07:44:07;;;;;;;10.40;10.10;;;3.40;99.90;;;;;;5087588;28;20222;-85
2022/01/18 07:46:46;;;;;;;10.57;10.27;;;3.40;99.90;;;;;;5087603;28;20284;-85
2022/01/18 07:49:18;;;;;;;10.50;10.20;;;3.40;99.90;;;;;;5086002;28;20256;-85
2022/01/18 07:51:46;;;;;;;10.40;10.10;;;3.40;99.90;;;;;;5085178;28;20218;-84
2022/01/18 07:54:14;;;;;;;10.40;10.10;;;3.40;99.90;;;;;;5085900;28;20308;-83
2022/01/18 07:56:42;;;;;;;10.50;10.20;;;3.30;99.90;;;;;;5086041;28;20233;-84
2022/01/18 07:59:12;;;;;;;10.37;10.07;;;3.30;99.90;;;;;;5082664;28;20321;-84
2022/01/18 08:01:44;;;;;;;10.70;10.40;;;3.30;99.90;;;;;;5073530;28;20332;-83
2022/01/18 08:04:12;;;;;;;10.17;9.87;;;3.40;99.90;;;;;;5065381;28;20231;-83
2022/01/18 08:06:41;;;;;;;10.37;10.07;;;3.50;99.90;;;;;;5071015;28;20294;-83
2022/01/18 08:09:10;;;;;;;10.30;10.00;;;3.60;99.90;;;;;;5079286;28;20304;-84
2022/01/18 08:11:39;;;;;;;10.10;9.80;;;3.70;99.90;;;;;;5065483;28;20288;-84
2022/01/18 08:14:13;;;;;;;10.20;9.90;;;3.70;99.90;;;;;;5064303;28;20237;-83
2022/01/18 08:16:59;;;;;;;10.60;10.30;;;3.80;99.90;;;;;;5063294;28;20234;-85
2022/01/18 08:22:11;;;;;;;10.50;10.20;;;4.00;99.90;;;;;;5082779;28;20229;-84
2022/01/18 08:24:41;;;;;;;10.30;10.00;;;4.00;99.90;;;;;;5082855;28;20230;-84
2022/01/18 08:27:11;;;;;;;9.83;9.53;;;4.00;99.90;;;;;;5083594;28;20226;-85
2022/01/18 08:29:41;;;;;;;10.27;9.97;;;4.10;99.90;;;;;;5083687;28;20295;-84
2022/01/18 08:34:56;;;;;;;10.37;10.07;;;4.20;99.90;;;;;;5082110;28;20305;-85
2022/01/18 08:37:26;;;;;;;10.10;9.80;;;4.30;99.90;;;;;;5065810;28;20226;-85
2022/01/18 08:39:56;;;;;;;10.23;9.93;;;4.40;99.90;;;;;;5081703;28;20234;-85
2022/01/18 08:42:25;;;;;;;10.53;10.23;;;4.40;99.90;;;;;;5073301;28;20288;-84
2022/01/18 08:44:55;;;;;;;10.77;10.47;;;4.40;99.90;;;;;;5074741;28;20230;-84
2022/01/18 08:50:11;;;;;;;10.77;10.47;;;4.50;99.90;;;;;;5081651;28;20225;-84
2022/01/18 08:52:41;;;;;;;10.30;10.00;;;4.60;99.90;;;;;;5094409;28;20206;-84
2022/01/18 08:55:10;;;;;;;10.50;10.20;;;4.60;99.90;;;;;;5080051;28;20226;-85
2022/01/18 08:57:40;;;;;;;10.60;10.30;;;4.60;99.90;;;;;;5083305;28;20226;-86
2022/01/18 09:00:10;;;;;;;10.57;10.27;;;4.60;99.90;;;;;;5096115;28;20253;-85
2022/01/18 09:02:41;;;;;;;10.70;10.40;;;4.50;99.90;;;;;;5102098;28;20214;-84
2022/01/18 09:05:10;;;;;;;10.50;10.20;;;4.50;99.90;;;;;;5103730;28;20240;-85
2022/01/18 09:07:39;;;;;;;10.33;10.03;;;4.60;99.90;;;;;;5102064;28;20288;-84
2022/01/18 09:10:11;;;;;;;10.00;9.70;;;4.70;99.90;;;;;;5098312;28;20293;-83
2022/01/18 09:12:46;;;;;;;9.53;9.23;;;4.90;99.90;;;;;;5087938;28;20230;-89
2022/01/18 09:15:14;;;;;;;9.33;9.03;;;5.10;99.90;;;;;;5088646;28;20232;-85
2022/01/18 09:17:55;;;;;;;9.30;9.00;;;5.20;99.90;;;;;;5084367;28;20226;-85
2022/01/18 09:20:24;;;;;;;9.20;8.90;;;5.40;99.90;;;;;;5077228;28;20340;-85
2022/01/18 09:22:53;;;;;;;9.10;8.80;;;5.70;99.90;;;;;;5088265;28;20214;-86
2022/01/18 09:25:33;;;;;;;9.20;8.90;;;5.70;99.90;;;;;;5088534;28;20320;-85
2022/01/18 09:28:01;;;;;;;9.40;9.10;;;5.90;99.90;;;;;;5058806;28;20233;-84
2022/01/18 09:30:31;;;;;;;9.50;9.20;;;6.10;99.90;;;;;;5082556;28;20233;-85
2022/01/18 09:33:08;;;;;;;9.17;8.87;;;6.20;99.90;;;;;;5090369;28;20223;-85
2022/01/18 09:35:39;;;;;;;9.50;9.20;;;6.30;99.90;;;;;;5072782;28;20242;-85
2022/01/18 09:38:20;;;;;;;9.20;8.90;;;6.30;99.90;;;;;;5089455;28;20226;-85
2022/01/18 09:40:54;;;;;;;9.30;9.00;;;6.20;99.90;;;;;;5049261;28;20239;-84
2022/01/18 09:43:28;;;;;;;9.13;8.83;;;6.20;99.90;;;;;;5046999;28;20351;-84
2022/01/18 09:46:17;;;;;;;9.30;9.00;;;6.20;99.90;;;;;;5055938;28;20230;-85
2022/01/18 09:48:49;;;;;;;9.60;9.30;;;6.40;99.90;;;;;;5074150;28;20234;-84
2022/01/18 09:51:18;;;;;;;9.30;9.00;;;6.60;99.90;;;;;;5065880;28;20230;-83
2022/01/18 09:53:52;;;;;;;9.80;9.50;;;6.60;99.90;;;;;;5075311;28;20238;-84
2022/01/18 09:56:20;;;;;;;9.53;9.23;;;6.70;99.90;;;;;;5081549;28;20253;-85
2022/01/18 09:58:48;;;;;;;9.70;9.40;;;6.70;99.90;;;;;;5085191;28;20246;-82
2022/01/18 10:01:16;;;;;;;9.40;9.10;;;6.70;99.90;;;;;;5085598;28;20230;-85
2022/01/18 10:03:48;;;;;;;9.40;9.10;;;6.50;99.90;;;;;;5081950;28;20239;-85
2022/01/18 10:06:25;;;;;;;9.73;9.43;;;6.60;99.90;;;;;;5082792;28;20203;-85
2022/01/18 10:09:03;;;;;;;9.30;9.00;;;6.60;99.90;;;;;;5083186;28;20394;-85
2022/01/18 10:12:18;;;;;;;9.40;9.10;;;6.50;99.90;;;;;;5071017;28;20230;-86
2022/01/18 10:15:05;;;;;;;9.50;9.20;;;6.50;99.90;;;;;;5067410;28;20227;-86
2022/01/18 10:17:41;;;;;;;9.33;9.03;;;6.40;99.90;;;;;;5078323;28;20245;-87
2022/01/18 10:20:20;;;;;;;9.03;8.80;;;6.40;99.90;;;;;;5072400;28;20234;-85
2022/01/18 10:23:00;;;;;;;9.10;8.83;;;6.50;99.90;;;;;;5068991;28;20230;-84
2022/01/18 10:25:38;;;;;;;9.60;9.30;;;6.50;99.90;;;;;;5068640;28;20235;-86
2022/01/18 10:28:50;;;;;;;9.10;8.90;;;6.50;99.90;;;;;;5071138;28;20235;-86
2022/01/18 10:31:39;;;;;;;9.33;9.03;;;6.50;99.90;;;;;;5003882;28;20239;-86
2022/01/18 10:35:04;;;;;;;9.67;9.37;;;6.60;99.90;;;;;;5017776;28;20236;-87
2022/01/18 10:37:36;;;;;;;9.20;8.90;;;6.70;99.90;;;;;;5067622;28;20231;-87
2022/01/18 10:40:08;;;;;;;9.40;9.10;;;7.00;99.90;;;;;;5066866;28;20257;-86
2022/01/18 10:42:54;;;;;;;9.17;8.87;;;7.40;99.90;;;;;;5064856;28;20227;-87
2022/01/18 10:45:33;;;;;;;9.30;9.00;;;7.80;99.90;;;;;;5067197;28;20261;-87
2022/01/18 10:48:10;;;;;;;9.20;8.90;;;8.30;99.90;;;;;;5064987;28;20238;-87
2022/01/18 10:50:48;;;;;;;9.33;9.03;;;8.60;99.90;;;;;;5057542;28;20231;-88
2022/01/18 10:53:27;;;;;;;8.97;8.77;;;8.40;99.90;;;;;;5068825;28;20289;-88
2022/01/18 10:56:23;;;;;;;9.70;9.40;;;8.00;99.90;;;;;;5064237;28;20254;-87
2022/01/18 10:59:05;;;;;;;9.50;9.20;;;7.50;99.90;;;;;;5068013;28;20234;-87
2022/01/18 11:01:40;;;;;;;9.70;9.40;;;7.10;99.90;;;;;;5079262;28;20241;-85
2022/01/18 11:04:27;;;;;;;9.80;9.50;;;6.80;99.90;;;;;;5102425;28;20236;-85
2022/01/18 11:07:13;;;;;;;9.80;9.50;;;6.70;99.90;;;;;;5093998;28;20245;-86
2022/01/18 11:09:50;;;;;;;10.10;9.80;;;6.60;99.90;;;;;;5054378;28;20287;-87
2022/01/18 11:12:23;;;;;;;9.80;9.50;;;6.50;99.90;;;;;;5060129;28;20203;-83
2022/01/18 11:15:03;;;;;;;9.90;9.60;;;6.60;99.90;;;;;;5056732;28;20295;-84
2022/01/18 11:52:20;;;;;;;8.80;8.60;;;7.40;99.90;;;;;;4976942;28;20216;-83
2022/01/18 12:32:38;;;;;;;9.17;8.87;;;7.10;99.90;;;;;;4841339;29;20285;-83
2022/01/18 12:46:19;;;;;;;8.80;8.60;;;6.60;99.90;;;;;;5000862;28;20209;-83
2022/01/18 12:48:59;;;;;;;8.90;8.70;;;6.90;99.90;;;;;;5055874;28;20589;-82
2022/01/18 12:51:27;;;;;;;8.80;8.60;;;7.00;99.90;;;;;;5085139;28;20239;-83
2022/01/18 12:53:55;;;;;;;8.93;8.73;;;7.10;99.90;;;;;;5082097;28;20265;-83
2022/01/18 12:56:27;;;;;;;8.43;8.23;;;7.30;99.90;;;;;;5082845;28;20297;-84
2022/01/18 12:58:58;;;;;;;8.67;8.47;;;7.40;99.90;;;;;;5087059;28;20241;-85
2022/01/18 13:01:31;;;;;;;8.83;8.63;;;7.40;99.90;;;;;;5087345;28;20242;-82
2022/01/18 13:31:06;;;;;;;9.80;9.50;;;9.50;99.90;;;;;;4920831;29;20308;-82
2022/01/18 13:34:39;;;;;;;9.00;8.80;;;9.90;99.90;;;;;;4921365;29;20232;-82
2022/01/18 13:42:02;;;;;;;9.50;9.20;;;10.20;99.90;;;;;;4991875;28;20209;-81
2022/01/18 14:25:46;;;;;;;8.77;8.57;;;8.30;99.90;;;;;;5088448;28;20239;-81
2022/01/18 14:41:50;;;;;;;8.90;8.70;;;7.20;99.90;;;;;;5081921;28;20304;-83
2022/01/18 14:44:35;;;;;;;9.20;8.90;;;7.20;99.90;;;;;;5085580;28;20234;-84
2022/01/18 14:49:58;;;;;;;9.50;9.20;;;7.10;99.90;;;;;;5084632;28;20230;-83
2022/01/18 14:52:39;;;;;;;9.00;8.80;;;7.00;99.90;;;;;;5085402;28;20240;-82
2022/01/18 14:55:16;;;;;;;9.30;9.00;;;6.90;99.90;;;;;;5085560;28;20275;-83
2022/01/18 14:58:11;;;;;;;9.27;8.97;;;6.90;99.90;;;;;;5086843;28;20214;-83
2022/01/18 15:00:53;;;;;;;9.30;9.00;;;6.70;99.90;;;;;;5086818;28;20285;-83
2022/01/18 15:03:56;;;;;;;9.13;8.83;;;6.70;99.90;;;;;;5085939;28;20248;-83
2022/01/18 15:10:30;;;;;;;;;;;;;;;;;;;;;
2022/01/18 15:13:36;;;;;;;9.03;8.80;;;6.50;99.90;;;;;;5085713;28;20221;-82
2022/01/18 15:16:41;;;;;;;8.80;8.60;;;6.50;99.90;;;;;;5085800;28;20233;-83
2022/01/18 15:19:41;;;;;;;9.00;8.80;;;6.50;99.90;;;;;;5098919;28;20226;-83
2022/01/18 15:22:22;;;;;;;9.20;8.90;;;6.50;99.90;;;;;;5098918;28;20226;-82
2022/01/18 15:27:54;;;;;;;9.30;9.00;;;6.40;99.90;;;;;;5081181;28;20303;-83
2022/01/18 15:30:48;;;;;;;9.20;8.90;;;6.40;99.90;;;;;;5083511;28;20382;-83
2022/01/18 15:44:49;;;;;;;8.97;8.77;;;6.20;99.90;;;;;;5063291;28;20244;-83
2022/01/18 15:47:25;;;;;;;9.20;8.90;;;6.20;99.90;;;;;;5000319;28;20232;-83
2022/01/18 15:49:58;;;;;;;9.70;9.40;;;6.10;99.90;;;;;;5064856;28;20242;-83
2022/01/18 15:52:43;;;;;;;9.50;9.20;;;6.10;99.90;;;;;;5074154;28;20226;-84
2022/01/18 16:01:25;;;;;;;9.60;9.30;;;6.00;99.90;;;;;;5083210;28;20246;-83
2022/01/18 16:04:19;;;;;;;9.70;9.40;;;5.90;99.90;;;;;;5083732;28;20245;-83
2022/01/18 16:06:51;;;;;;;9.90;9.60;;;5.80;99.90;;;;;;5076364;28;20314;-83
2022/01/18 16:09:32;;;;;;;10.00;9.70;;;5.80;99.90;;;;;;5083510;28;20436;-83
2022/01/18 16:12:05;;;;;;;9.50;9.20;;;5.80;99.90;;;;;;5090959;28;20214;-81
2022/01/18 16:14:37;;;;;;;9.50;9.20;;;5.80;99.90;;;;;;5099054;28;20230;-83
2022/01/18 16:17:09;;;;;;;9.57;9.27;;;5.80;99.90;;;;;;5089197;28;20241;-83
2022/01/18 16:19:47;;;;;;;9.63;9.33;;;5.80;99.90;;;;;;5084990;28;20237;-83
2022/01/18 16:22:18;;;;;;;9.40;9.10;;;5.90;99.90;;;;;;5093777;28;20281;-83
2022/01/18 16:24:48;;;;;;;9.37;9.07;;;5.80;99.90;;;;;;5094259;28;20234;-83
2022/01/18 16:27:21;;;;;;;9.57;9.27;;;5.70;99.90;;;;;;5096422;28;20260;-83
2022/01/18 16:32:58;;;;;;;9.70;9.40;;;5.70;99.90;;;;;;5076593;28;20233;-83
2022/01/18 16:35:47;;;;;;;10.00;9.70;;;5.70;99.90;;;;;;5084128;28;20237;-83
2022/01/18 16:38:26;;;;;;;9.67;9.37;;;5.70;99.90;;;;;;5082924;28;20285;-83
2022/01/18 16:41:04;;;;;;;9.50;9.20;;;5.50;99.90;;;;;;5082042;28;20243;-83
2022/01/18 16:43:48;;;;;;;9.60;9.30;;;5.40;99.90;;;;;;5084170;28;20241;-85
2022/01/18 16:46:20;;;;;;;9.60;9.30;;;5.40;99.90;;;;;;5083080;28;20240;-84
2022/01/18 16:48:48;;;;;;;9.60;9.30;;;5.40;99.90;;;;;;5080261;28;20416;-85
2022/01/18 16:51:27;;;;;;;9.40;9.10;;;5.40;99.90;;;;;;5078847;28;20241;-86
2022/01/18 16:54:05;;;;;;;8.77;8.57;;;5.50;99.90;;;;;;5084695;28;20218;-85
2022/01/18 16:56:47;;;;;;;9.20;8.90;;;5.40;99.90;;;;;;5082198;28;20216;-81
2022/01/18 16:59:21;;;;;;;9.40;9.10;;;5.40;99.90;;;;;;5082398;28;20222;-81
2022/01/18 17:01:53;;;;;;;9.60;9.30;;;5.40;99.90;;;;;;5083155;28;20225;-81
2022/01/18 17:04:33;;;;;;;9.70;9.40;;;5.40;99.90;;;;;;5079079;28;20245;-82
2022/01/18 17:07:07;;;;;;;9.80;9.50;;;5.40;99.90;;;;;;5081097;28;20241;-81
2022/01/18 17:09:36;;;;;;;10.43;10.13;;;5.40;99.90;;;;;;5080647;28;20230;-82
2022/01/18 17:12:06;;;;;;;10.03;9.73;;;5.40;99.90;;;;;;5091600;28;20222;-82
2022/01/18 17:14:37;;;;;;;9.80;9.50;;;5.40;99.90;;;;;;5087381;28;20218;-82
2022/01/18 17:17:06;;;;;;;9.93;9.63;;;5.40;99.90;;;;;;5082085;28;20221;-83
2022/01/18 17:19:36;;;;;;;9.40;9.10;;;5.40;99.90;;;;;;5082391;28;20226;-83
2022/01/18 17:22:08;;;;;;;9.80;9.50;;;5.30;99.90;;;;;;5082435;28;20268;-82
2022/01/18 17:24:38;;;;;;;9.90;9.60;;;5.30;99.90;;;;;;5085246;28;20230;-83
2022/01/18 17:27:06;;;;;;;9.67;9.37;;;5.30;99.90;;;;;;5085185;28;20697;-82
2022/01/18 17:29:34;;;;;;;9.97;9.67;;;5.30;99.90;;;;;;5083668;28;20287;-83
2022/01/18 17:32:03;;;;;;;9.60;9.30;;;5.30;99.90;;;;;;5083241;28;20222;-83
2022/01/18 17:34:33;;;;;;;9.83;9.53;;;5.30;99.90;;;;;;5083676;28;20225;-83
2022/01/18 17:37:04;;;;;;;10.00;9.70;;;5.30;99.90;;;;;;5084021;28;20230;-84
2022/01/18 17:39:41;;;;;;;9.90;9.60;;;5.40;99.90;;;;;;5086018;28;20228;-83
2022/01/18 17:42:10;;;;;;;10.10;9.80;;;5.40;99.90;;;;;;5083578;28;20230;-84
2022/01/18 17:44:48;;;;;;;10.00;9.70;;;5.40;99.90;;;;;;5084795;28;20234;-84
2022/01/18 17:47:18;;;;;;;9.80;9.50;;;5.40;99.90;;;;;;5083334;28;20222;-82
2022/01/18 17:49:49;;;;;;;9.90;9.60;;;5.30;99.90;;;;;;5083058;28;20226;-84
2022/01/18 17:52:17;;;;;;;9.80;9.50;;;5.20;99.90;;;;;;5091206;28;20234;-83
2022/01/18 17:54:49;;;;;;;9.60;9.30;;;5.20;99.90;;;;;;5083645;28;20262;-84
2022/01/18 17:57:17;;;;;;;9.80;9.50;;;5.10;99.90;;;;;;5087034;28;20256;-82
2022/01/18 17:59:45;;;;;;;9.80;9.50;;;5.10;99.90;;;;;;5085058;28;20288;-82
2022/01/18 18:02:17;;;;;;;9.73;9.43;;;5.00;99.90;;;;;;5085269;28;20223;-85
2022/01/18 18:05:07;;;;;;;9.57;9.27;;;5.00;99.90;;;;;;5084359;28;20228;-85
2022/01/18 18:07:46;;;;;;;9.77;9.47;;;4.90;99.90;;;;;;5082535;28;20233;-84